Urmston, United Kingdom
Current Conditions -  °F | °C
As of 9:20 AM on Sunday 21 Dec 2014 (Local Time) from EGCC Reporting Station
Light Rain Light Rain  
Wind Chill: 38°   Ceiling: 2900
Heat Index: 45°   Visibility: 3mi
Dew Point: 43°   Wind: 13mph
Humidity: 93%   Direction: 190°S
Pressure: 30.18"   Gusts: NA
Location:  53.45°N, 2.35°W
Report Text: EGCC 210920Z 19011KT 5000 -RA SCT016 BKN029 07/06 Q1022 RERA
Loading
Personal Weather Stations






























Interactive Weather Map New forecast layout! Learn more

10-Day Weather Forecast

Advertisements
Track Severe Weather on mobile